Time;durP1;ratioP1;P1;durP2;ratioP2;P2;SDS_P1;SDS_P2;PMS_P1;PMS_P2;Temp;Humidity;BMP_temperature;BMP_pressure;BME280_temperature;BME280_humidity;BME280_pressure;Samples;Min_cycle;Max_cycle;Signal;HPM_P1;HPM_P2
2023/01/06 00:00:26;;;;;;;;;4.00;2.00;;;;;12.66;72.38;101894.16;4975827;28;45433;-48
2023/01/06 00:02:52;;;;;;;;;1.00;1.00;;;;;12.66;72.52;101891.47;4975699;28;45535;-48
2023/01/06 00:05:17;;;;;;;;;3.00;1.00;;;;;12.67;72.19;101891.34;4975818;28;45417;-50
2023/01/06 00:07:45;;;;;;;;;1.67;1.00;;;;;12.70;72.48;101890.25;4975438;28;46057;-51
2023/01/06 00:10:10;;;;;;;;;1.00;1.00;;;;;12.63;72.13;101879.25;4975639;28;45381;-49
2023/01/06 00:12:36;;;;;;;;;4.00;2.00;;;;;12.63;72.45;101889.91;4975629;28;45470;-49
2023/01/06 00:15:02;;;;;;;;;3.33;1.00;;;;;12.51;72.34;101885.63;4975765;28;45378;-52
2023/01/06 00:17:28;;;;;;;;;2.00;1.00;;;;;12.45;72.78;101878.16;4975570;28;45368;-46
2023/01/06 00:19:53;;;;;;;;;0.00;0.00;;;;;12.47;72.78;101876.19;4975487;28;45389;-49
2023/01/06 00:22:18;;;;;;;;;2.33;1.00;;;;;12.49;72.76;101884.94;4975558;28;45327;-49
2023/01/06 00:24:44;;;;;;;;;1.33;0.33;;;;;12.54;73.01;101884.53;4975781;28;45404;-48
2023/01/06 00:27:09;;;;;;;;;2.00;0.00;;;;;12.56;72.80;101890.59;4974958;28;46093;-48
2023/01/06 00:29:35;;;;;;;;;2.00;2.00;;;;;12.55;73.14;101881.72;4975558;28;45422;-50
2023/01/06 00:32:01;;;;;;;;;2.33;1.33;;;;;12.62;72.96;101901.56;4975411;28;45366;-48
2023/01/06 00:34:27;;;;;;;;;0.67;0.67;;;;;12.56;72.70;101882.59;4975088;28;45449;-51
2023/01/06 00:36:53;;;;;;;;;1.00;1.00;;;;;12.62;72.73;101893.56;4975065;28;46121;-48
2023/01/06 00:39:18;;;;;;;;;1.00;1.00;;;;;12.66;72.96;101897.66;4974971;28;45236;-50
2023/01/06 00:42:02;;;;;;;;;0.67;0.00;;;;;12.68;72.36;101902.88;4975321;28;45219;-48
2023/01/06 00:44:28;;;;;;;;;0.67;0.67;;;;;12.67;72.74;101898.50;4975449;28;45394;-50
2023/01/06 00:46:53;;;;;;;;;2.00;0.33;;;;;12.68;72.66;101898.41;4974830;28;45322;-50
2023/01/06 00:49:18;;;;;;;;;0.67;0.67;;;;;12.66;72.69;101899.50;4974723;28;47579;-48
2023/01/06 00:51:43;;;;;;;;;0.00;0.00;;;;;12.68;72.85;101903.75;4975193;28;45321;-48
2023/01/06 00:54:11;;;;;;;;;2.00;0.00;;;;;12.69;72.24;101894.75;4975281;28;45452;-53
2023/01/06 00:56:44;;;;;;;;;0.67;0.67;;;;;12.69;72.85;101889.41;4974563;28;46337;-47
2023/01/06 00:59:12;;;;;;;;;0.33;0.00;;;;;12.68;72.71;101897.53;4974834;28;45518;-50
2023/01/06 01:01:38;;;;;;;;;0.00;0.00;;;;;12.66;72.71;101895.00;4974748;28;45431;-52
2023/01/06 01:04:03;;;;;;;;;0.67;0.00;;;;;12.65;72.53;101900.47;4975006;28;45408;-50
2023/01/06 01:06:29;;;;;;;;;0.00;0.00;;;;;12.63;72.64;101908.59;4974694;28;46116;-48
2023/01/06 01:08:56;;;;;;;;;1.00;0.00;;;;;12.61;72.86;101907.91;4974571;28;45332;-50
2023/01/06 01:14:06;;;;;;;;;1.00;0.00;;;;;12.58;72.88;101905.50;4974831;28;45294;-48
2023/01/06 01:16:31;;;;;;;;;0.00;0.00;;;;;12.57;72.93;101906.47;4974350;28;46025;-48
2023/01/06 01:18:58;;;;;;;;;1.00;0.00;;;;;12.46;73.00;101888.69;4974532;28;45316;-50
2023/01/06 01:21:23;;;;;;;;;0.00;0.00;;;;;12.56;73.35;101910.13;4974700;28;45291;-48
2023/01/06 01:23:48;;;;;;;;;0.67;0.67;;;;;12.54;73.20;101890.72;4974931;28;45230;-50
2023/01/06 01:26:14;;;;;;;;;0.00;0.00;;;;;12.49;73.35;101888.44;4974458;28;45969;-51
2023/01/06 01:28:39;;;;;;;;;0.00;0.00;;;;;12.54;73.30;101885.38;4974467;28;45347;-50
2023/01/06 01:31:05;;;;;;;;;2.67;0.67;;;;;12.52;73.76;101881.16;4974715;28;45375;-52
2023/01/06 01:33:30;;;;;;;;;0.00;0.00;;;;;12.51;74.17;101885.63;4974672;28;45409;-49
2023/01/06 01:35:56;;;;;;;;;0.00;0.00;;;;;12.52;74.01;101889.16;4974190;28;45661;-48
2023/01/06 01:38:21;;;;;;;;;0.00;0.00;;;;;12.52;73.69;101890.00;4974377;28;45445;-49
2023/01/06 01:40:48;;;;;;;;;2.00;0.00;;;;;12.49;73.75;101885.78;4974534;28;45427;-51
2023/01/06 01:43:14;;;;;;;;;0.00;0.00;;;;;12.47;74.07;101870.84;4974590;28;45312;-48
2023/01/06 01:45:44;;;;;;;;;0.00;0.00;;;;;12.46;74.43;101877.16;4974356;28;46270;-49
2023/01/06 01:48:32;;;;;;;;;0.00;0.00;;;;;12.44;74.15;101871.97;4977138;28;45224;-48
2023/01/06 01:51:02;;;;;;;;;0.00;0.00;;;;;12.42;74.47;101870.41;4977289;28;45716;-49
2023/01/06 01:53:31;;;;;;;;;0.00;0.00;;;;;12.41;74.27;101863.38;4977354;28;45466;-50
2023/01/06 01:56:01;;;;;;;;;0.00;0.00;;;;;12.43;74.31;101861.41;4976880;28;46372;-49
2023/01/06 01:58:36;;;;;;;;;0.00;0.00;;;;;12.41;74.19;101868.72;4976934;28;45208;-48
2023/01/06 02:01:01;;;;;;;;;0.00;0.00;;;;;12.39;74.47;101862.69;4977223;28;45322;-52
2023/01/06 02:03:27;;;;;;;;;0.00;0.00;;;;;12.38;74.85;101867.16;4977385;28;45474;-47
2023/01/06 02:05:56;;;;;;;;;0.00;0.00;;;;;12.43;74.42;101869.41;4976931;28;45962;-50
2023/01/06 02:08:37;;;;;;;;;1.00;1.00;;;;;12.41;74.11;101866.91;4977187;28;45541;-50
2023/01/06 02:11:04;;;;;;;;;0.67;0.67;;;;;12.36;73.88;101870.94;4977125;27;45346;-52
2023/01/06 02:13:33;;;;;;;;;1.00;1.00;;;;;12.37;74.49;101865.47;4977223;28;45515;-50
2023/01/06 02:16:18;;;;;;;;;0.00;0.00;;;;;12.34;74.24;101863.06;4977189;28;46708;-47
2023/01/06 02:18:56;;;;;;;;;0.33;0.33;;;;;12.35;74.31;101869.25;4976555;28;45461;-51
2023/01/06 02:21:32;;;;;;;;;0.00;0.00;;;;;12.34;74.65;101862.22;4977143;28;45449;-48
2023/01/06 02:24:36;;;;;;;;;0.00;0.00;;;;;12.30;74.73;101858.94;4977070;28;45465;-48
2023/01/06 02:27:07;;;;;;;;;0.00;0.00;;;;;12.29;75.32;101865.28;4976615;28;46257;-49
2023/01/06 02:29:57;;;;;;;;;0.00;0.00;;;;;12.26;75.07;101865.53;4976687;28;45303;-47
2023/01/06 02:32:42;;;;;;;;;0.00;0.00;;;;;12.26;75.00;101878.03;4976708;28;45249;-51
2023/01/06 02:35:38;;;;;;;;;0.00;0.00;;;;;12.27;75.38;101866.41;4976903;28;45322;-50
2023/01/06 02:38:20;;;;;;;;;1.33;0.00;;;;;12.27;74.74;101866.41;4976229;28;46457;-51
2023/01/06 02:41:09;;;;;;;;;0.00;0.00;;;;;12.26;75.20;101870.84;4976547;28;45273;-49
2023/01/06 02:43:50;;;;;;;;;2.33;0.00;;;;;12.24;74.96;101868.34;4976333;28;45489;-50
2023/01/06 02:46:23;;;;;;;;;0.00;0.00;;;;;12.24;75.37;101871.00;4976626;28;45329;-51
2023/01/06 02:49:26;;;;;;;;;0.00;0.00;;;;;12.27;74.99;101855.72;4976245;28;46218;-49
2023/01/06 02:52:18;;;;;;;;;0.00;0.00;;;;;12.28;75.04;101846.72;4976290;28;45355;-47
2023/01/06 02:54:48;;;;;;;;;0.00;0.00;;;;;12.28;75.26;101841.41;4976253;28;45422;-48
2023/01/06 02:57:37;;;;;;;;;2.00;0.33;;;;;12.26;75.12;101846.00;4976350;28;45435;-49
2023/01/06 03:00:28;;;;;;;;;1.33;0.00;;;;;12.27;75.44;101829.03;4976227;28;45541;-48
2023/01/06 03:03:00;;;;;;;;;2.00;1.00;;;;;12.24;74.78;101832.81;4976350;28;45395;-48
2023/01/06 03:05:28;;;;;;;;;2.00;0.00;;;;;12.26;74.91;101830.00;4976474;28;45332;-50
2023/01/06 03:07:56;;;;;;;;;0.00;0.00;;;;;12.23;75.16;101825.78;4976469;28;45297;-51
2023/01/06 03:10:25;;;;;;;;;1.00;0.00;;;;;12.21;75.06;101814.38;4976160;28;46469;-53
2023/01/06 03:12:56;;;;;;;;;0.00;0.00;;;;;12.17;75.14;101819.13;4976319;28;45339;-49
2023/01/06 03:15:24;;;;;;;;;0.00;0.00;;;;;12.15;75.39;101818.44;4976403;28;45451;-51
2023/01/06 03:17:49;;;;;;;;;0.00;0.00;;;;;12.17;75.77;101820.97;4976326;28;45460;-53
2023/01/06 03:20:15;;;;;;;;;1.00;1.00;;;;;12.18;75.91;101809.34;4976054;28;46241;-49
2023/01/06 03:22:42;;;;;;;;;0.33;0.00;;;;;12.19;75.60;101822.53;4976131;28;45230;-50
2023/01/06 03:25:08;;;;;;;;;0.00;0.00;;;;;12.20;75.56;101826.03;4976321;28;45456;-51
2023/01/06 03:27:33;;;;;;;;;1.33;0.00;;;;;12.10;75.43;101812.66;4976290;28;45343;-51
2023/01/06 03:30:00;;;;;;;;;0.00;0.00;;;;;12.18;75.24;101820.84;4975788;28;45478;-47
2023/01/06 03:32:37;;;;;;;;;0.00;0.00;;;;;12.19;75.49;101830.53;4976101;28;45440;-50
2023/01/06 03:35:08;;;;;;;;;1.00;1.00;;;;;12.21;75.42;101825.91;4975875;28;45406;-52
2023/01/06 03:38:02;;;;;;;;;0.00;0.00;;;;;12.23;75.64;101828.47;4976065;28;45375;-49
2023/01/06 03:40:38;;;;;;;;;0.00;0.00;;;;;12.23;75.79;101821.28;4972824;28;45655;-48
2023/01/06 03:43:16;;;;;;;;;0.00;0.00;;;;;12.23;75.30;101813.28;4975589;28;45357;-50
2023/01/06 03:45:55;;;;;;;;;0.00;0.00;;;;;12.24;75.30;101820.31;4975849;28;45359;-49
2023/01/06 03:48:31;;;;;;;;;0.00;0.00;;;;;12.20;75.34;101807.38;4976040;28;45299;-49
2023/01/06 03:51:06;;;;;;;;;0.00;0.00;;;;;12.19;75.51;101821.69;4974264;28;46278;-49
2023/01/06 03:53:45;;;;;;;;;0.33;0.33;;;;;12.20;75.92;101818.03;4975516;28;45333;-49
2023/01/06 03:56:35;;;;;;;;;0.00;0.00;;;;;12.18;75.76;101804.00;4975652;28;45366;-50
2023/01/06 03:59:05;;;;;;;;;1.00;1.00;;;;;12.17;75.80;101813.78;4975550;28;45362;-48
2023/01/06 04:01:31;;;;;;;;;1.00;0.00;;;;;12.15;75.87;101810.44;4975511;28;46293;-51
2023/01/06 04:03:57;;;;;;;;;0.00;0.00;;;;;12.17;76.01;101810.28;4975544;28;45414;-49
2023/01/06 04:06:23;;;;;;;;;0.00;0.00;;;;;12.17;76.13;101794.28;4975493;28;45318;-51
2023/01/06 04:08:48;;;;;;;;;1.00;1.00;;;;;12.16;75.99;101782.78;4975182;28;45368;-49
2023/01/06 04:13:58;;;;;;;;;0.00;0.00;;;;;12.17;76.12;101796.94;4975092;28;45387;-48
2023/01/06 04:16:24;;;;;;;;;0.00;0.00;;;;;12.14;75.82;101794.56;4975482;28;45342;-48
2023/01/06 04:18:49;;;;;;;;;0.00;0.00;;;;;12.14;75.91;101795.41;4975554;28;45554;-50
2023/01/06 04:21:15;;;;;;;;;0.00;0.00;;;;;12.16;76.19;101792.59;4975372;28;46251;-50
2023/01/06 04:23:40;;;;;;;;;0.00;0.00;;;;;12.18;76.39;101801.34;4975470;28;45336;-49
2023/01/06 04:26:05;;;;;;;;;0.00;0.00;;;;;12.16;76.36;101801.44;4975437;28;45425;-51
2023/01/06 04:28:31;;;;;;;;;1.67;1.00;;;;;12.16;76.47;101812.13;4975557;28;45224;-50
2023/01/06 04:31:00;;;;;;;;;0.00;0.00;;;;;12.14;76.29;101802.56;4975125;28;46066;-49
2023/01/06 04:33:27;;;;;;;;;0.00;0.00;;;;;12.11;76.12;101805.50;4975184;28;45371;-50
2023/01/06 04:35:52;;;;;;;;;0.00;0.00;;;;;12.14;76.42;101805.25;4975403;28;45169;-49
2023/01/06 04:38:18;;;;;;;;;0.33;0.33;;;;;12.16;76.21;101797.94;4975227;28;45219;-50
2023/01/06 04:40:43;;;;;;;;;0.00;0.00;;;;;12.16;76.81;101808.59;4975235;28;45350;-48
2023/01/06 04:43:14;;;;;;;;;0.00;0.00;;;;;12.19;76.71;101787.84;4975050;28;45503;-53
2023/01/06 04:45:41;;;;;;;;;0.00;0.00;;;;;12.21;76.06;101790.38;4975149;28;45477;-49
2023/01/06 04:48:07;;;;;;;;;0.00;0.00;;;;;12.10;76.05;101764.63;4975359;28;45333;-51
2023/01/06 04:50:33;;;;;;;;;1.00;0.00;;;;;12.16;76.17;101777.44;4973011;28;46279;-48
2023/01/06 04:52:58;;;;;;;;;0.00;0.00;;;;;12.16;76.49;101768.59;4974967;28;45258;-49
2023/01/06 04:55:23;;;;;;;;;0.67;0.00;;;;;12.15;76.27;101775.75;4974913;28;46786;-51
2023/01/06 04:57:49;;;;;;;;;0.00;0.00;;;;;12.18;76.44;101774.66;4975178;28;45133;-47
2023/01/06 05:00:15;;;;;;;;;1.00;0.67;;;;;12.20;76.37;101775.34;4974913;28;45271;-51
2023/01/06 05:02:41;;;;;;;;;0.00;0.00;;;;;12.17;76.66;101770.28;4974808;28;45367;-52
2023/01/06 05:05:07;;;;;;;;;0.67;0.67;;;;;12.18;76.64;101775.50;4975232;28;45652;-48
2023/01/06 05:07:32;;;;;;;;;1.00;1.00;;;;;12.17;76.93;101765.78;4975222;28;45456;-51
2023/01/06 05:09:58;;;;;;;;;3.00;0.33;;;;;12.15;77.05;101758.91;4974435;28;46044;-52
2023/01/06 05:12:23;;;;;;;;;1.00;1.00;;;;;12.17;77.06;101779.13;4974736;28;45647;-51
2023/01/06 05:14:48;;;;;;;;;0.00;0.00;;;;;12.15;76.39;101761.56;4974506;28;45296;-50
2023/01/06 05:17:14;;;;;;;;;0.00;0.00;;;;;12.17;76.02;101757.78;4976857;28;45629;-51
2023/01/06 05:19:41;;;;;;;;;1.00;1.00;;;;;12.13;76.53;101761.69;4974315;28;46076;-48
2023/01/06 05:22:07;;;;;;;;;1.00;1.00;;;;;12.09;76.89;101754.09;4973622;28;45416;-47
2023/01/06 05:24:32;;;;;;;;;0.00;0.00;;;;;12.07;77.13;101766.72;4974656;28;45323;-49
2023/01/06 05:26:58;;;;;;;;;1.00;0.00;;;;;12.09;77.04;101772.75;4974885;28;45747;-48
2023/01/06 05:29:23;;;;;;;;;0.00;0.00;;;;;12.05;77.51;101771.31;4974448;28;45466;-47
2023/01/06 05:31:48;;;;;;;;;0.00;0.00;;;;;12.11;77.24;101779.66;4974391;28;45196;-51
2023/01/06 05:34:13;;;;;;;;;0.00;0.00;;;;;12.14;77.18;101782.06;4974499;28;45430;-49
2023/01/06 05:36:39;;;;;;;;;1.00;1.00;;;;;12.12;77.37;101781.34;4974911;28;45262;-47
2023/01/06 05:39:04;;;;;;;;;3.00;1.00;;;;;12.20;77.65;101786.03;4974110;28;46013;-49
2023/01/06 05:41:29;;;;;;;;;2.33;1.00;;;;;12.23;77.42;101793.78;4974202;28;45234;-49
2023/01/06 05:43:57;;;;;;;;;0.67;0.33;;;;;12.16;76.76;101787.25;4974200;28;45479;-49
2023/01/06 05:46:23;;;;;;;;;1.00;1.00;;;;;12.20;77.03;101791.38;4974433;28;45378;-49
2023/01/06 05:48:48;;;;;;;;;0.67;0.67;;;;;12.20;77.44;101792.22;4973844;28;45769;-51
2023/01/06 05:51:15;;;;;;;;;0.00;0.00;;;;;12.23;77.02;101791.09;4974020;28;47247;-51
2023/01/06 05:53:43;;;;;;;;;1.33;1.00;;;;;12.17;77.19;101786.28;4974211;28;45327;-48
2023/01/06 05:56:10;;;;;;;;;1.00;1.00;;;;;12.25;76.87;101802.47;4974322;28;45461;-50
2023/01/06 05:58:39;;;;;;;;;1.33;1.00;;;;;12.24;77.50;101806.13;4973760;28;45404;-53
2023/01/06 06:01:05;;;;;;;;;0.00;0.00;;;;;12.22;77.40;101795.59;4973679;28;45399;-47
2023/01/06 06:03:32;;;;;;;;;0.67;0.67;;;;;12.27;77.56;101799.69;4973987;28;45530;-49
2023/01/06 06:06:05;;;;;;;;;0.33;0.00;;;;;12.30;77.39;101799.41;4974013;28;45222;-51
2023/01/06 06:08:31;;;;;;;;;0.00;0.00;;;;;12.32;77.08;101805.47;4973536;28;46527;-49
2023/01/06 06:11:01;;;;;;;;;2.00;2.00;;;;;12.31;77.25;101804.63;4973623;28;45430;-47
2023/01/06 06:13:26;;;;;;;;;0.67;0.00;;;;;12.31;77.23;101801.13;4973766;28;45287;-51
2023/01/06 06:16:05;;;;;;;;;0.00;0.00;;;;;12.33;77.11;101801.81;4973862;28;45553;-51
2023/01/06 06:18:31;;;;;;;;;1.00;1.00;;;;;12.32;76.48;101795.66;4973560;28;46113;-50
2023/01/06 06:21:03;;;;;;;;;2.00;0.00;;;;;12.33;76.56;101796.50;4973414;28;46235;-50
2023/01/06 06:23:29;;;;;;;;;0.00;0.00;;;;;12.34;76.88;101800.84;4973617;28;45401;-50
2023/01/06 06:25:55;;;;;;;;;2.67;0.00;;;;;12.33;76.62;101799.16;4973942;28;45376;-48
2023/01/06 06:28:20;;;;;;;;;2.00;0.00;;;;;12.36;77.02;101806.91;4973336;28;45525;-48
2023/01/06 06:30:46;;;;;;;;;0.00;0.00;;;;;12.35;76.69;101802.56;4973615;28;45386;-50
2023/01/06 06:33:11;;;;;;;;;1.00;1.00;;;;;12.34;76.66;101798.16;4975779;27;45308;-50
2023/01/06 06:35:36;;;;;;;;;2.00;0.00;;;;;12.32;76.74;101798.31;4976853;28;45312;-47
2023/01/06 06:38:02;;;;;;;;;1.00;1.00;;;;;12.33;76.83;101804.50;4976247;28;50570;-48
2023/01/06 06:40:27;;;;;;;;;0.00;0.00;;;;;12.35;76.74;101807.88;4976530;28;45218;-50
2023/01/06 06:42:52;;;;;;;;;0.00;0.00;;;;;12.30;76.39;101802.91;4976428;28;48120;-49
2023/01/06 06:45:18;;;;;;;;;0.67;0.67;;;;;12.35;77.01;101800.72;4976308;28;45205;-50
2023/01/06 06:47:43;;;;;;;;;0.00;0.00;;;;;12.35;76.84;101806.06;4976433;28;46055;-50
2023/01/06 06:50:12;;;;;;;;;1.00;1.00;;;;;12.35;76.97;101811.41;4976143;28;45367;-50
2023/01/06 06:52:37;;;;;;;;;0.00;0.00;;;;;12.36;76.37;101806.91;4976449;28;45932;-50
2023/01/06 06:55:03;;;;;;;;;1.00;1.00;;;;;12.36;76.83;101806.91;4976541;28;45272;-54
2023/01/06 06:57:29;;;;;;;;;1.00;1.00;;;;;12.38;77.01;101813.78;4976165;28;46341;-51
2023/01/06 06:59:54;;;;;;;;;3.00;0.00;;;;;12.39;76.99;101815.50;4976921;28;45389;-50
2023/01/06 07:02:19;;;;;;;;;0.00;0.00;;;;;12.40;76.96;101817.19;4976468;28;45441;-53
2023/01/06 07:04:45;;;;;;;;;1.33;1.33;;;;;12.40;76.51;101819.84;4976518;28;45249;-52
2023/01/06 07:07:10;;;;;;;;;1.00;1.00;;;;;12.40;76.79;101824.34;4976244;28;46129;-51
2023/01/06 07:09:35;;;;;;;;;2.00;0.67;;;;;12.38;76.94;101820.94;4976102;28;45264;-51
2023/01/06 07:12:01;;;;;;;;;2.00;0.67;;;;;12.36;76.88;101821.09;4976246;28;45542;-53
2023/01/06 07:14:26;;;;;;;;;1.00;1.00;;;;;12.37;77.25;101819.25;4976295;28;45430;-49
2023/01/06 07:16:52;;;;;;;;;3.00;2.00;;;;;12.37;76.69;101819.25;4975724;28;55301;-52
2023/01/06 07:19:17;;;;;;;;;3.00;1.00;;;;;12.39;76.68;101828.00;4976123;28;45281;-47
2023/01/06 07:21:42;;;;;;;;;1.00;0.67;;;;;12.39;77.43;101828.00;4976155;28;45169;-53
2023/01/06 07:24:08;;;;;;;;;1.00;1.00;;;;;12.40;77.52;101829.69;4974806;28;45498;-50
2023/01/06 07:26:33;;;;;;;;;2.00;0.00;;;;;12.38;77.01;101835.13;4976064;28;45492;-50
2023/01/06 07:28:58;;;;;;;;;2.00;1.00;;;;;12.39;76.94;101834.16;4975775;28;45469;-52
2023/01/06 07:31:23;;;;;;;;;2.67;1.00;;;;;12.42;77.43;101823.22;4975926;28;45323;-48
2023/01/06 07:33:49;;;;;;;;;1.00;1.00;;;;;12.42;77.45;101828.56;4976222;27;45365;-49
2023/01/06 07:36:14;;;;;;;;;1.67;1.67;;;;;12.40;77.19;101833.19;4975780;28;45337;-50
2023/01/06 07:38:39;;;;;;;;;3.67;2.00;;;;;12.36;77.41;101821.09;4975737;28;45367;-48
2023/01/06 07:41:05;;;;;;;;;4.67;1.67;;;;;12.37;77.53;101825.44;4975942;28;45313;-50
2023/01/06 07:43:30;;;;;;;;;3.00;2.67;;;;;12.36;78.07;101818.41;4975248;28;45224;-46
2023/01/06 07:45:56;;;;;;;;;3.00;1.00;;;;;12.37;77.87;101827.25;4975556;28;45959;-50
2023/01/06 07:48:21;;;;;;;;;3.33;1.67;;;;;12.37;77.58;101833.44;4975698;28;45339;-51
2023/01/06 07:50:47;;;;;;;;;2.00;2.00;;;;;12.29;77.84;101821.75;4975622;28;45460;-50
2023/01/06 07:53:12;;;;;;;;;2.33;1.00;;;;;12.33;77.87;101832.00;4975978;28;45443;-48
2023/01/06 07:55:38;;;;;;;;;4.00;3.00;;;;;12.31;78.11;101841.16;4975653;28;46000;-49
2023/01/06 07:58:07;;;;;;;;;3.33;2.67;;;;;12.30;78.33;101844.78;4975520;28;45390;-49
2023/01/06 08:00:33;;;;;;;;;4.00;3.00;;;;;12.31;78.12;101843.81;4974986;28;45450;-48
2023/01/06 08:03:03;;;;;;;;;5.33;2.00;;;;;12.33;78.68;101844.50;4975880;28;45373;-49
2023/01/06 08:05:28;;;;;;;;;8.00;4.00;;;;;12.33;78.17;101842.69;4975193;28;46173;-50
2023/01/06 08:07:53;;;;;;;;;3.33;2.00;;;;;12.36;78.23;101841.59;4975375;28;45357;-50
2023/01/06 08:10:19;;;;;;;;;3.00;3.00;;;;;12.36;78.30;101841.59;4975311;28;45842;-50
2023/01/06 08:12:44;;;;;;;;;5.33;2.33;;;;;12.37;78.34;101846.78;4975617;28;45443;-51
2023/01/06 08:15:10;;;;;;;;;4.00;2.00;;;;;12.36;78.40;101830.91;4975284;28;45994;-50
2023/01/06 08:17:35;;;;;;;;;3.33;2.00;;;;;12.35;78.58;101826.56;4975034;28;45451;-51
2023/01/06 08:20:01;;;;;;;;;3.00;1.00;;;;;12.37;78.54;101827.25;4975406;28;45252;-48
2023/01/06 08:22:26;;;;;;;;;3.33;3.33;;;;;12.38;78.00;101832.47;4975588;28;45339;-52
2023/01/06 08:24:51;;;;;;;;;6.67;2.00;;;;;12.36;78.35;101831.75;4976656;28;46246;-47
2023/01/06 08:27:18;;;;;;;;;4.00;2.67;;;;;12.45;78.18;101836.31;4975228;28;45311;-49
2023/01/06 08:29:43;;;;;;;;;2.00;2.00;;;;;12.47;77.56;101844.16;4975044;28;45265;-50
2023/01/06 08:32:09;;;;;;;;;1.67;1.00;;;;;12.46;78.00;101847.81;5049485;27;45489;-49
2023/01/06 08:34:34;;;;;;;;;2.00;2.00;;;;;12.45;77.66;101854.13;5073655;27;45499;-49
2023/01/06 08:36:59;;;;;;;;;3.00;3.00;;;;;12.41;78.10;101848.22;5073356;27;47397;-52
2023/01/06 08:39:25;;;;;;;;;3.00;2.00;;;;;12.43;77.96;101856.06;5069020;27;47786;-51
2023/01/06 08:41:50;;;;;;;;;4.00;3.00;;;;;12.43;78.04;101854.28;4998654;28;45460;-52
2023/01/06 08:44:17;;;;;;;;;6.67;3.00;;;;;12.44;77.76;101858.63;5073456;27;46108;-51
2023/01/06 08:46:42;;;;;;;;;4.00;2.00;;;;;12.46;77.72;101861.16;5025531;27;45457;-48
2023/01/06 08:49:08;;;;;;;;;3.00;3.00;;;;;12.50;78.40;101849.25;5070158;28;45926;-49
2023/01/06 08:51:34;;;;;;;;;4.00;2.00;;;;;12.49;77.31;101850.22;5072781;27;45460;-52
2023/01/06 08:54:00;;;;;;;;;3.67;2.67;;;;;12.52;77.65;101852.66;5033495;27;46096;-53
2023/01/06 08:56:28;;;;;;;;;3.00;1.67;;;;;12.52;77.74;101854.47;4973195;28;45499;-51
2023/01/06 08:58:59;;;;;;;;;1.67;1.67;;;;;12.46;77.88;101861.16;4973078;28;45202;-52
2023/01/06 09:01:27;;;;;;;;;3.00;3.00;;;;;12.45;77.92;101846.97;4973478;28;45451;-47
2023/01/06 09:03:54;;;;;;;;;3.67;3.67;;;;;12.47;77.75;101860.19;4973313;28;46240;-50
2023/01/06 09:06:20;;;;;;;;;3.33;3.00;;;;;12.47;77.62;101853.03;4973176;28;45366;-49
2023/01/06 09:08:47;;;;;;;;;2.00;2.00;;;;;12.48;77.86;101864.56;4973337;28;45350;-49
2023/01/06 09:11:13;;;;;;;;;4.67;1.33;;;;;12.47;78.02;101868.19;4973915;28;45496;-47
2023/01/06 09:13:39;;;;;;;;;3.33;3.00;;;;;12.48;77.86;101851.22;4973120;28;46067;-51
2023/01/06 09:16:08;;;;;;;;;6.00;4.00;;;;;12.48;77.82;101860.06;4973128;28;45457;-51
2023/01/06 09:18:34;;;;;;;;;2.33;2.33;;;;;12.46;77.63;101851.31;4973389;28;45375;-51
2023/01/06 09:21:00;;;;;;;;;3.33;3.33;;;;;12.44;77.74;101850.63;4973362;28;45433;-47
2023/01/06 09:23:25;;;;;;;;;3.33;3.00;;;;;12.49;78.36;101863.56;4973274;28;46930;-46
2023/01/06 09:25:51;;;;;;;;;2.00;2.00;;;;;12.51;78.35;101868.78;4973332;28;45382;-48
2023/01/06 09:28:16;;;;;;;;;2.00;2.00;;;;;12.42;78.32;101851.72;4973252;28;45421;-50
2023/01/06 09:30:41;;;;;;;;;3.00;2.00;;;;;12.44;78.12;101858.63;4973359;28;45380;-50
2023/01/06 09:33:07;;;;;;;;;3.00;3.00;;;;;12.48;78.27;101865.41;4972998;28;46170;-51
2023/01/06 09:35:32;;;;;;;;;15.33;12.00;;;;;12.52;78.66;101855.31;4973195;28;45391;-49
2023/01/06 09:37:58;;;;;;;;;7.00;4.00;;;;;12.53;78.34;101856.16;4973112;28;45421;-50
2023/01/06 09:40:31;;;;;;;;;4.00;2.00;;;;;12.51;78.65;101866.94;4973390;28;45420;-48
2023/01/06 09:43:22;;;;;;;;;3.33;3.33;;;;;12.54;78.10;101860.50;4973154;28;45449;-49
2023/01/06 09:45:53;;;;;;;;;7.33;3.33;;;;;12.56;78.70;101863.91;4972984;28;45447;-51
2023/01/06 09:48:27;;;;;;;;;4.00;3.00;;;;;12.55;78.40;101860.38;4972941;28;45336;-51
2023/01/06 09:50:58;;;;;;;;;3.67;3.67;;;;;12.50;78.67;101846.56;4972921;28;45466;-48
2023/01/06 09:53:30;;;;;;;;;3.67;3.67;;;;;12.62;78.10;101869.53;4972803;28;46215;-50
2023/01/06 09:56:00;;;;;;;;;3.00;3.00;;;;;12.52;77.85;101849.13;4972788;28;45360;-48
2023/01/06 09:58:44;;;;;;;;;4.00;3.00;;;;;12.58;78.32;101865.44;4972583;28;45509;-51
2023/01/06 10:01:15;;;;;;;;;3.67;3.00;;;;;12.59;78.16;101874.28;4972741;28;45478;-50
2023/01/06 10:03:45;;;;;;;;;2.67;1.67;;;;;12.61;77.94;101875.88;4972263;28;46562;-50
2023/01/06 10:06:10;;;;;;;;;6.33;3.67;;;;;12.62;78.17;101882.88;4974095;28;45519;-50
2023/01/06 10:09:07;;;;;;;;;7.33;4.00;;;;;12.58;78.16;101876.13;4975408;28;45425;-51
2023/01/06 10:11:47;;;;;;;;;2.33;2.33;;;;;12.61;78.20;101883.88;4975953;28;45533;-51
2023/01/06 10:14:45;;;;;;;;;3.33;3.00;;;;;12.61;78.07;101867.03;4975300;28;47246;-50
2023/01/06 10:17:14;;;;;;;;;11.00;6.67;;;;;12.64;78.01;101869.41;4975120;28;45240;-50
2023/01/06 10:20:02;;;;;;;;;8.00;4.67;;;;;12.66;78.29;101870.13;4975369;28;45441;-52
2023/01/06 10:22:46;;;;;;;;;3.00;2.00;;;;;12.65;78.30;101865.78;4975570;28;45554;-51
2023/01/06 10:25:15;;;;;;;;;8.00;3.67;;;;;12.68;77.97;101874.38;4975161;28;45998;-49
2023/01/06 10:27:49;;;;;;;;;4.67;3.33;;;;;12.63;77.95;101867.72;4975085;28;45697;-49
2023/01/06 10:30:23;;;;;;;;;4.00;4.00;;;;;12.69;77.92;101876.06;4974833;28;45389;-48
2023/01/06 10:32:49;;;;;;;;;6.00;3.33;;;;;12.71;78.32;101879.41;4975352;28;45401;-49
2023/01/06 10:35:19;;;;;;;;;4.00;4.00;;;;;12.73;78.10;101877.47;4975316;28;46019;-49
2023/01/06 10:37:50;;;;;;;;;6.00;3.33;;;;;12.75;78.23;101877.34;4975411;28;45359;-52
2023/01/06 10:40:18;;;;;;;;;2.67;2.00;;;;;12.77;77.66;101880.72;4975230;28;45377;-50
2023/01/06 10:42:57;;;;;;;;;7.00;3.00;;;;;12.80;77.48;101869.75;4975559;28;45308;-51
2023/01/06 10:45:43;;;;;;;;;6.00;4.00;;;;;12.80;77.48;101869.75;4975104;28;45461;-49
2023/01/06 10:48:19;;;;;;;;;3.00;3.00;;;;;12.83;78.03;101868.66;4975101;28;45405;-51
2023/01/06 10:50:44;;;;;;;;;3.00;3.00;;;;;12.87;77.88;101878.94;4975011;28;45456;-51
2023/01/06 10:53:11;;;;;;;;;4.67;4.00;;;;;12.89;77.69;101869.00;4975477;28;45430;-51
2023/01/06 10:55:48;;;;;;;;;8.67;4.00;;;;;12.91;77.35;101871.50;4974981;28;46305;-51
2023/01/06 10:58:21;;;;;;;;;6.00;6.00;;;;;12.91;77.32;101861.66;4974993;28;45484;-50
2023/01/06 11:00:55;;;;;;;;;4.00;4.00;;;;;12.92;77.58;101865.19;4974950;28;45388;-50
2023/01/06 11:03:20;;;;;;;;;3.67;2.33;;;;;12.96;77.08;101850.59;4975273;28;45507;-49
2023/01/06 11:05:46;;;;;;;;;6.00;6.00;;;;;13.00;77.32;101852.00;4974534;28;45995;-51
2023/01/06 11:08:14;;;;;;;;;4.00;4.00;;;;;13.00;77.18;101854.66;4974967;28;45515;-51
2023/01/06 11:10:43;;;;;;;;;7.00;7.00;;;;;13.01;77.02;101847.50;4974985;28;45388;-49
2023/01/06 11:13:35;;;;;;;;;8.00;8.00;;;;;13.02;77.24;101850.06;4975162;28;45460;-51
2023/01/06 11:16:04;;;;;;;;;10.67;8.00;;;;;13.09;77.42;101843.16;4974753;28;46358;-51
2023/01/06 11:18:36;;;;;;;;;7.00;7.00;;;;;13.19;76.98;101840.53;4973092;28;45405;-51
2023/01/06 11:21:02;;;;;;;;;8.67;8.67;;;;;13.27;76.65;101840.69;4974700;28;45405;-51
2023/01/06 11:23:28;;;;;;;;;6.00;6.00;;;;;13.28;76.64;101838.91;4974807;28;45468;-50
2023/01/06 11:26:04;;;;;;;;;5.33;4.00;;;;;13.34;76.76;101835.66;4974592;28;47046;-50
2023/01/06 11:28:30;;;;;;;;;7.00;4.67;;;;;13.35;76.61;101827.50;4974594;28;45488;-52
2023/01/06 11:31:06;;;;;;;;;9.67;4.00;;;;;13.35;76.36;101822.16;4975565;28;45409;-50
2023/01/06 11:33:35;;;;;;;;;4.00;4.00;;;;;13.35;76.54;101832.84;4974641;28;45406;-48
2023/01/06 11:36:12;;;;;;;;;8.00;8.00;;;;;13.36;76.95;101828.38;4974644;28;46100;-51
2023/01/06 11:39:12;;;;;;;;;7.33;5.00;;;;;13.37;76.30;101824.72;4974300;28;45445;-51